Condor II — XCEG3 — position and weather

sailwx.info

Track history (hours):
 
Tides and Currents Weather Stations Pressure Air Temp Water Temp Dewpoint Dewpoint Depression Visibility Wind Speed Wind Dir Waves Ship Positions

Condor II

Last reported at 2017-Nov-15 00:57 UTC. Time now 2017-Nov-17 21:18 UTC.
Position N 28°02' W 114°39'.

Length 35 m.

Type: Tug. MMSI: 345020008.

Date/timePositionNaut miles runAvg speedWind from/ knotsBaromVisibWave heightAir tempDewpointWater temp
2017-Nov-15 00:57N 28°02' W 114°39'4 6.8
2017-Nov-15 00:17N 28°02' W 114°44'2 6.6
2017-Nov-14 23:59N 28°03' W 114°46'3 5.8
2017-Nov-14 23:30N 28°03' W 114°49'3 5.7
2017-Nov-14 23:00N 28°04' W 114°52'4 5.4
2017-Nov-14 22:11N 28°05' W 114°57'1 5.2
2017-Nov-14 21:55N 28°05' W 114°59'3 0.1
2017-Nov-12 21:40N 28°03' W 114°55'1 5.1
2017-Nov-12 21:30N 28°03' W 114°54'42 2.3
2017-Nov-12 03:42N 27°54' W 114°08'  
Track history (hours):
 
Tides and Currents Weather Stations Pressure Air Temp Water Temp Dewpoint Dewpoint Depression Visibility Wind Speed Wind Dir Waves Ship Positions

Condor II

Last reported at 2017-Nov-15 00:57 UTC. Time now 2017-Nov-17 21:18 UTC.
Position N 28°02' W 114°39'.

Length 35 m.

Type: Tug. MMSI: 345020008.

Date/timePositionNaut miles runAvg speedWind from/ knotsBaromVisibWave heightAir tempDewpointWater temp
2017-Nov-15 00:57N 28°02' W 114°39'4 6.8
2017-Nov-15 00:17N 28°02' W 114°44'2 6.6
2017-Nov-14 23:59N 28°03' W 114°46'3 5.8
2017-Nov-14 23:30N 28°03' W 114°49'3 5.7
2017-Nov-14 23:00N 28°04' W 114°52'4 5.4
2017-Nov-14 22:11N 28°05' W 114°57'1 5.2
2017-Nov-14 21:55N 28°05' W 114°59'3 0.1
2017-Nov-12 21:40N 28°03' W 114°55'1 5.1
2017-Nov-12 21:30N 28°03' W 114°54'42 2.3
2017-Nov-12 03:42N 27°54' W 114°08'  

Dump ship's entire track history